Main page
METAR-TAF:

METAR-TAF

Airports :

Tangier Ibn Battouta Airport

Tangier, Morocco

latitude: 35-44N, longitude: 005-54W, elevation: 19 m

Current weather observation

The report was made 30 minutes ago, at 23:30 UTC
Wind 14 kt from the East/Northeast
Temperature 18°C
Humidity 68%
Pressure 1015 hPa
Visibility 10 km or more
no clouds below 1500 m and no cumulonimbus

METAR: GMTT 222330Z 06014KT CAVOK 18/12 Q1015 NOSIG

Time: 00:00 (00:00 UTC)

Forecast

The report was made 1 hour and 0 minutes ago, at 23:00 UTC
Forecast valid from 23 at 00 UTC to 24 at 06 UTC
Wind 14 kt from the East/Northeast
Visibility 10 km or more
no clouds below 1500 m and no cumulonimbus
Becoming
from 23 at 17 UTC to 23 at 19 UTC
Wind 5 kt from the Northeast

TAF: GMTT 222300Z 2300/2406 06014KT CAVOK BECMG 2317/2319 05005KT

Weather observations and forecasts of more than 4000 airports (METAR and TAF reports).

The available stations are represented by yellow and red dots on the map.

Hover mouse over dot to see the name of the station.

Then click to see weather observations and forecasts.

To change the map : click on the green buttons with a black cross to zoom in, on the green button with a dash to zoom out, or on the green arrows for adjacent maps.


METAR-TAF: